sensor_id;sensor_type;location;lat;lon;timestamp;pressure;altitude;pressure_sealevel;temperature;humidity
24306;BME280;12423;48.768;8.850;2023-02-08T00:00:25;98880.97;;;-4.12;100.00
24306;BME280;12423;48.768;8.850;2023-02-08T00:02:26;98873.13;;;-4.19;100.00
24306;BME280;12423;48.768;8.850;2023-02-08T00:04:27;98874.88;;;-4.20;100.00
24306;BME280;12423;48.768;8.850;2023-02-08T00:06:29;98874.00;;;-4.20;100.00
24306;BME280;12423;48.768;8.850;2023-02-08T00:08:30;98865.28;;;-4.26;100.00
24306;BME280;12423;48.768;8.850;2023-02-08T00:10:31;98867.84;;;-4.39;100.00
24306;BME280;12423;48.768;8.850;2023-02-08T00:12:33;98860.91;;;-4.36;100.00
24306;BME280;12423;48.768;8.850;2023-02-08T00:14:35;98858.28;;;-4.33;100.00
24306;BME280;12423;48.768;8.850;2023-02-08T00:16:36;98862.63;;;-4.38;100.00
24306;BME280;12423;48.768;8.850;2023-02-08T00:18:37;98869.56;;;-4.45;100.00
24306;BME280;12423;48.768;8.850;2023-02-08T00:20:39;98870.47;;;-4.36;100.00
24306;BME280;12423;48.768;8.850;2023-02-08T00:22:41;98863.50;;;-4.45;100.00
24306;BME280;12423;48.768;8.850;2023-02-08T00:24:42;98860.00;;;-4.47;100.00
24306;BME280;12423;48.768;8.850;2023-02-08T00:26:43;98856.47;;;-4.55;100.00
24306;BME280;12423;48.768;8.850;2023-02-08T00:28:44;98853.88;;;-4.58;100.00
24306;BME280;12423;48.768;8.850;2023-02-08T00:30:45;98853.00;;;-4.60;100.00
24306;BME280;12423;48.768;8.850;2023-02-08T00:32:46;98851.22;;;-4.71;100.00
24306;BME280;12423;48.768;8.850;2023-02-08T00:34:47;98851.25;;;-4.68;100.00
24306;BME280;12423;48.768;8.850;2023-02-08T00:36:48;98844.28;;;-4.66;100.00
24306;BME280;12423;48.768;8.850;2023-02-08T00:38:48;98846.91;;;-4.64;100.00
24306;BME280;12423;48.768;8.850;2023-02-08T00:40:49;98844.28;;;-4.72;100.00
24306;BME280;12423;48.768;8.850;2023-02-08T00:42:52;98839.06;;;-4.75;100.00
24306;BME280;12423;48.768;8.850;2023-02-08T00:44:53;98839.97;;;-4.64;100.00
24306;BME280;12423;48.768;8.850;2023-02-08T00:46:54;98842.56;;;-4.59;100.00
24306;BME280;12423;48.768;8.850;2023-02-08T00:48:55;98840.84;;;-4.60;100.00
24306;BME280;12423;48.768;8.850;2023-02-08T00:51:01;98846.94;;;-4.56;100.00
24306;BME280;12423;48.768;8.850;2023-02-08T00:53:02;98840.81;;;-4.65;100.00
24306;BME280;12423;48.768;8.850;2023-02-08T00:55:04;98850.38;;;-4.68;100.00
24306;BME280;12423;48.768;8.850;2023-02-08T00:57:05;98846.88;;;-4.72;100.00
24306;BME280;12423;48.768;8.850;2023-02-08T00:59:06;98851.22;;;-4.69;100.00
24306;BME280;12423;48.768;8.850;2023-02-08T01:01:08;98848.56;;;-4.85;100.00
24306;BME280;12423;48.768;8.850;2023-02-08T01:03:09;98859.81;;;-4.90;100.00
24306;BME280;12423;48.768;8.850;2023-02-08T01:05:10;98854.69;;;-4.78;100.00
24306;BME280;12423;48.768;8.850;2023-02-08T01:07:13;98857.28;;;-4.79;100.00
24306;BME280;12423;48.768;8.850;2023-02-08T01:09:14;98859.91;;;-4.75;100.00
24306;BME280;12423;48.768;8.850;2023-02-08T01:11:19;98851.19;;;-4.83;100.00
24306;BME280;12423;48.768;8.850;2023-02-08T01:13:21;98868.53;;;-4.85;100.00
24306;BME280;12423;48.768;8.850;2023-02-08T01:15:24;98861.50;;;-5.05;100.00
24306;BME280;12423;48.768;8.850;2023-02-08T01:17:25;98865.00;;;-5.00;100.00
24306;BME280;12423;48.768;8.850;2023-02-08T01:19:25;98859.00;;;-4.82;100.00
24306;BME280;12423;48.768;8.850;2023-02-08T01:21:33;98858.97;;;-4.88;100.00
24306;BME280;12423;48.768;8.850;2023-02-08T01:23:35;98863.31;;;-4.90;100.00
24306;BME280;12423;48.768;8.850;2023-02-08T01:25:37;98852.84;;;-4.99;100.00
24306;BME280;12423;48.768;8.850;2023-02-08T01:27:39;98857.22;;;-4.95;100.00
24306;BME280;12423;48.768;8.850;2023-02-08T01:29:40;98851.09;;;-4.95;100.00
24306;BME280;12423;48.768;8.850;2023-02-08T01:31:42;98848.47;;;-4.98;100.00
24306;BME280;12423;48.768;8.850;2023-02-08T01:33:43;98837.19;;;-4.97;100.00
24306;BME280;12423;48.768;8.850;2023-02-08T01:35:44;98834.59;;;-4.99;100.00
24306;BME280;12423;48.768;8.850;2023-02-08T01:37:45;98831.06;;;-5.07;100.00
24306;BME280;12423;48.768;8.850;2023-02-08T01:39:46;98838.91;;;-5.06;100.00
24306;BME280;12423;48.768;8.850;2023-02-08T01:41:47;98837.19;;;-5.01;100.00
24306;BME280;12423;48.768;8.850;2023-02-08T01:45:11;98848.50;;;-4.97;100.00
24306;BME280;12423;48.768;8.850;2023-02-08T01:46:29;98832.81;;;-5.09;100.00
24306;BME280;12423;48.768;8.850;2023-02-08T01:48:37;98835.41;;;-5.11;100.00
24306;BME280;12423;48.768;8.850;2023-02-08T01:50:50;98832.78;;;-5.12;100.00
24306;BME280;12423;48.768;8.850;2023-02-08T01:52:53;98832.75;;;-5.17;100.00
24306;BME280;12423;48.768;8.850;2023-02-08T01:55:00;98828.41;;;-5.16;100.00
24306;BME280;12423;48.768;8.850;2023-02-08T01:57:02;98829.25;;;-5.22;100.00
24306;BME280;12423;48.768;8.850;2023-02-08T01:59:08;98826.66;;;-5.22;100.00
24306;BME280;12423;48.768;8.850;2023-02-08T02:01:10;98831.03;;;-5.20;100.00
24306;BME280;12423;48.768;8.850;2023-02-08T02:03:13;98835.41;;;-5.12;100.00
24306;BME280;12423;48.768;8.850;2023-02-08T02:05:16;98829.28;;;-5.16;100.00
24306;BME280;12423;48.768;8.850;2023-02-08T02:07:19;98820.53;;;-5.29;100.00
24306;BME280;12423;48.768;8.850;2023-02-08T02:09:37;98818.78;;;-5.30;100.00
24306;BME280;12423;48.768;8.850;2023-02-08T02:11:40;98819.69;;;-5.26;100.00
24306;BME280;12423;48.768;8.850;2023-02-08T02:13:42;98821.41;;;-5.25;100.00
24306;BME280;12423;48.768;8.850;2023-02-08T02:15:44;98812.72;;;-5.27;100.00
24306;BME280;12423;48.768;8.850;2023-02-08T02:17:45;98815.28;;;-5.33;100.00
24306;BME280;12423;48.768;8.850;2023-02-08T02:22:10;98806.56;;;-5.40;100.00
24306;BME280;12423;48.768;8.850;2023-02-08T02:27:12;98802.22;;;-5.46;100.00
24306;BME280;12423;48.768;8.850;2023-02-08T02:38:08;98795.25;;;-5.47;100.00
24306;BME280;12423;48.768;8.850;2023-02-08T02:40:36;98795.97;;;-5.69;100.00
24306;BME280;12423;48.768;8.850;2023-02-08T02:47:47;98795.03;;;-5.78;100.00
24306;BME280;12423;48.768;8.850;2023-02-08T02:49:53;98801.09;;;-5.80;100.00
24306;BME280;12423;48.768;8.850;2023-02-08T02:54:17;98798.59;;;-5.66;100.00
24306;BME280;12423;48.768;8.850;2023-02-08T02:56:26;98796.00;;;-5.63;100.00
24306;BME280;12423;48.768;8.850;2023-02-08T02:58:29;98800.28;;;-5.71;100.00
24306;BME280;12423;48.768;8.850;2023-02-08T03:00:31;98798.56;;;-5.69;100.00
24306;BME280;12423;48.768;8.850;2023-02-08T03:02:33;98793.38;;;-5.68;100.00
24306;BME280;12423;48.768;8.850;2023-02-08T03:06:50;98802.84;;;-5.78;100.00
24306;BME280;12423;48.768;8.850;2023-02-08T03:11:13;98801.13;;;-5.72;100.00
24306;BME280;12423;48.768;8.850;2023-02-08T03:20:12;98795.00;;;-5.81;100.00
24306;BME280;12423;48.768;8.850;2023-02-08T03:22:26;98792.38;;;-5.87;100.00
24306;BME280;12423;48.768;8.850;2023-02-08T03:26:48;98807.06;;;-5.95;100.00
24306;BME280;12423;48.768;8.850;2023-02-08T03:28:59;98796.66;;;-5.95;100.00
24306;BME280;12423;48.768;8.850;2023-02-08T03:31:13;98807.06;;;-5.95;100.00
24306;BME280;12423;48.768;8.850;2023-02-08T03:33:38;98806.22;;;-5.99;100.00
24306;BME280;12423;48.768;8.850;2023-02-08T03:35:49;98802.75;;;-5.92;100.00
24306;BME280;12423;48.768;8.850;2023-02-08T03:38:26;98799.28;;;-5.92;100.00
24306;BME280;12423;48.768;8.850;2023-02-08T03:40:33;98807.97;;;-5.90;100.00
24306;BME280;12423;48.768;8.850;2023-02-08T03:42:37;98810.56;;;-5.90;100.00
24306;BME280;12423;48.768;8.850;2023-02-08T03:44:59;98800.16;;;-5.90;100.00
24306;BME280;12423;48.768;8.850;2023-02-08T03:47:06;98803.66;;;-5.85;100.00
24306;BME280;12423;48.768;8.850;2023-02-08T03:49:24;98804.47;;;-5.97;100.00
24306;BME280;12423;48.768;8.850;2023-02-08T03:51:29;98794.91;;;-5.99;100.00
24306;BME280;12423;48.768;8.850;2023-02-08T03:53:34;98806.22;;;-5.97;100.00
24306;BME280;12423;48.768;8.850;2023-02-08T03:55:41;98799.28;;;-5.94;100.00
24306;BME280;12423;48.768;8.850;2023-02-08T03:57:58;98801.03;;;-5.89;100.00
24306;BME280;12423;48.768;8.850;2023-02-08T04:00:07;98794.94;;;-5.96;100.00
24306;BME280;12423;48.768;8.850;2023-02-08T04:02:18;98802.69;;;-6.01;100.00
24306;BME280;12423;48.768;8.850;2023-02-08T04:04:21;98795.81;;;-5.97;100.00
24306;BME280;12423;48.768;8.850;2023-02-08T04:06:22;98790.53;;;-6.05;100.00
24306;BME280;12423;48.768;8.850;2023-02-08T04:08:24;98791.41;;;-6.01;100.00
24306;BME280;12423;48.768;8.850;2023-02-08T04:10:25;98791.41;;;-6.04;100.00
24306;BME280;12423;48.768;8.850;2023-02-08T04:12:26;98798.34;;;-6.03;100.00
24306;BME280;12423;48.768;8.850;2023-02-08T04:14:27;98785.34;;;-6.02;100.00
24306;BME280;12423;48.768;8.850;2023-02-08T04:16:28;98793.13;;;-6.06;100.00
24306;BME280;12423;48.768;8.850;2023-02-08T04:18:29;98785.28;;;-6.11;100.00
24306;BME280;12423;48.768;8.850;2023-02-08T04:20:30;98786.97;;;-6.15;100.00
24306;BME280;12423;48.768;8.850;2023-02-08T04:22:31;98780.94;;;-6.09;100.00
24306;BME280;12423;48.768;8.850;2023-02-08T04:24:33;98792.28;;;-6.02;100.00
24306;BME280;12423;48.768;8.850;2023-02-08T04:26:34;98787.94;;;-6.03;100.00
24306;BME280;12423;48.768;8.850;2023-02-08T04:28:35;98790.59;;;-5.99;100.00
24306;BME280;12423;48.768;8.850;2023-02-08T04:30:36;98786.19;;;-6.04;100.00
24306;BME280;12423;48.768;8.850;2023-02-08T04:32:37;98795.72;;;-6.06;100.00
24306;BME280;12423;48.768;8.850;2023-02-08T04:34:39;98794.84;;;-6.08;100.00
24306;BME280;12423;48.768;8.850;2023-02-08T04:36:40;98799.22;;;-6.03;100.00
24306;BME280;12423;48.768;8.850;2023-02-08T04:38:41;98789.66;;;-6.07;100.00
24306;BME280;12423;48.768;8.850;2023-02-08T04:40:42;98789.56;;;-6.18;100.00
24306;BME280;12423;48.768;8.850;2023-02-08T04:42:43;98791.34;;;-6.14;100.00
24306;BME280;12423;48.768;8.850;2023-02-08T04:44:44;98796.53;;;-6.11;100.00
24306;BME280;12423;48.768;8.850;2023-02-08T04:46:45;98780.81;;;-6.26;100.00
24306;BME280;12423;48.768;8.850;2023-02-08T04:48:46;98786.91;;;-6.22;100.00
24306;BME280;12423;48.768;8.850;2023-02-08T04:50:47;98782.56;;;-6.25;100.00
24306;BME280;12423;48.768;8.850;2023-02-08T04:52:47;98779.03;;;-6.33;100.00
24306;BME280;12423;48.768;8.850;2023-02-08T04:54:48;98783.38;;;-6.29;100.00
24306;BME280;12423;48.768;8.850;2023-02-08T04:56:49;98769.50;;;-6.31;100.00
24306;BME280;12423;48.768;8.850;2023-02-08T04:58:50;98775.53;;;-6.32;100.00
24306;BME280;12423;48.768;8.850;2023-02-08T05:00:51;98774.78;;;-6.22;100.00
24306;BME280;12423;48.768;8.850;2023-02-08T05:02:53;98767.81;;;-6.23;100.00
24306;BME280;12423;48.768;8.850;2023-02-08T05:04:54;98764.25;;;-6.34;100.00
24306;BME280;12423;48.768;8.850;2023-02-08T05:06:55;98764.25;;;-6.34;100.00
24306;BME280;12423;48.768;8.850;2023-02-08T05:08:56;98753.91;;;-6.28;100.00
24306;BME280;12423;48.768;8.850;2023-02-08T05:10:57;98757.44;;;-6.21;100.00
24306;BME280;12423;48.768;8.850;2023-02-08T05:12:58;98762.41;;;-6.47;100.00
24306;BME280;12423;48.768;8.850;2023-02-08T05:14:59;98760.63;;;-6.55;100.00
24306;BME280;12423;48.768;8.850;2023-02-08T05:17:00;98769.88;;;-6.78;100.00
24306;BME280;12423;48.768;8.850;2023-02-08T05:19:01;98768.28;;;-6.67;100.00
24306;BME280;12423;48.768;8.850;2023-02-08T05:21:02;98770.81;;;-6.73;100.00
24306;BME280;12423;48.768;8.850;2023-02-08T05:23:03;98769.84;;;-6.84;100.00
24306;BME280;12423;48.768;8.850;2023-02-08T05:25:06;98768.41;;;-6.56;100.00
24306;BME280;12423;48.768;8.850;2023-02-08T05:27:07;98761.47;;;-6.56;100.00
24306;BME280;12423;48.768;8.850;2023-02-08T05:29:08;98765.72;;;-6.62;100.00
24306;BME280;12423;48.768;8.850;2023-02-08T05:31:17;98764.06;;;-6.56;100.00
24306;BME280;12423;48.768;8.850;2023-02-08T05:33:19;98764.09;;;-6.53;100.00
24306;BME280;12423;48.768;8.850;2023-02-08T05:35:20;98765.72;;;-6.64;100.00
24306;BME280;12423;48.768;8.850;2023-02-08T05:37:21;98751.91;;;-6.60;100.00
24306;BME280;12423;48.768;8.850;2023-02-08T05:39:22;98766.63;;;-6.59;100.00
24306;BME280;12423;48.768;8.850;2023-02-08T05:41:23;98767.50;;;-6.58;100.00
24306;BME280;12423;48.768;8.850;2023-02-08T05:43:24;98764.16;;;-6.46;100.00
24306;BME280;12423;48.768;8.850;2023-02-08T05:45:25;98751.16;;;-6.46;100.00
24306;BME280;12423;48.768;8.850;2023-02-08T05:47:26;98764.16;;;-6.43;100.00
24306;BME280;12423;48.768;8.850;2023-02-08T05:49:27;98765.91;;;-6.42;100.00
24306;BME280;12423;48.768;8.850;2023-02-08T05:51:27;98768.56;;;-6.38;100.00
24306;BME280;12423;48.768;8.850;2023-02-08T05:53:29;98768.59;;;-6.36;100.00
24306;BME280;12423;48.768;8.850;2023-02-08T05:55:30;98768.44;;;-6.53;100.00
24306;BME280;12423;48.768;8.850;2023-02-08T05:57:31;98770.94;;;-6.62;100.00
24306;BME280;12423;48.768;8.850;2023-02-08T05:59:32;98765.03;;;-6.44;100.00
24306;BME280;12423;48.768;8.850;2023-02-08T06:01:33;98774.50;;;-6.53;100.00
24306;BME280;12423;48.768;8.850;2023-02-08T06:03:35;98784.13;;;-6.42;100.00
24306;BME280;12423;48.768;8.850;2023-02-08T06:05:37;98778.94;;;-6.39;100.00
24306;BME280;12423;48.768;8.850;2023-02-08T06:07:38;98771.84;;;-6.56;100.00
24306;BME280;12423;48.768;8.850;2023-02-08T06:09:39;98769.19;;;-6.62;100.00
24306;BME280;12423;48.768;8.850;2023-02-08T06:11:40;98774.47;;;-6.54;100.00
24306;BME280;12423;48.768;8.850;2023-02-08T06:13:41;98764.06;;;-6.56;100.00
24306;BME280;12423;48.768;8.850;2023-02-08T06:15:42;98770.84;;;-6.70;100.00
24306;BME280;12423;48.768;8.850;2023-02-08T06:17:43;98769.16;;;-6.65;100.00
24306;BME280;12423;48.768;8.850;2023-02-08T06:19:44;98777.09;;;-6.53;100.00
24306;BME280;12423;48.768;8.850;2023-02-08T06:21:45;98779.59;;;-6.62;100.00
24306;BME280;12423;48.768;8.850;2023-02-08T06:23:46;98780.34;;;-6.72;100.00
24306;BME280;12423;48.768;8.850;2023-02-08T06:25:47;98779.50;;;-6.71;100.00
24306;BME280;12423;48.768;8.850;2023-02-08T06:27:48;98776.94;;;-6.68;100.00
24306;BME280;12423;48.768;8.850;2023-02-08T06:29:49;98783.84;;;-6.69;100.00
24306;BME280;12423;48.768;8.850;2023-02-08T06:31:50;98775.97;;;-6.75;100.00
24306;BME280;12423;48.768;8.850;2023-02-08T06:33:51;98778.53;;;-6.82;100.00
24306;BME280;12423;48.768;8.850;2023-02-08T06:35:52;98779.38;;;-6.83;100.00
24306;BME280;12423;48.768;8.850;2023-02-08T06:37:54;98780.25;;;-6.81;100.00
24306;BME280;12423;48.768;8.850;2023-02-08T06:39:55;98777.69;;;-6.77;100.00
24306;BME280;12423;48.768;8.850;2023-02-08T06:41:56;98782.06;;;-6.74;100.00
24306;BME280;12423;48.768;8.850;2023-02-08T06:43:57;98784.75;;;-6.67;100.00
24306;BME280;12423;48.768;8.850;2023-02-08T06:45:59;98794.28;;;-6.67;100.00
24306;BME280;12423;48.768;8.850;2023-02-08T06:48:04;98786.53;;;-6.62;100.00
24306;BME280;12423;48.768;8.850;2023-02-08T06:50:05;98789.94;;;-6.68;100.00
24306;BME280;12423;48.768;8.850;2023-02-08T06:52:06;98784.63;;;-6.77;100.00
24306;BME280;12423;48.768;8.850;2023-02-08T06:54:07;98790.66;;;-6.81;100.00
24306;BME280;12423;48.768;8.850;2023-02-08T06:56:08;98780.25;;;-6.81;100.00
24306;BME280;12423;48.768;8.850;2023-02-08T06:58:09;98785.47;;;-6.80;100.00
24306;BME280;12423;48.768;8.850;2023-02-08T07:00:11;98800.25;;;-6.76;100.00
24306;BME280;12423;48.768;8.850;2023-02-08T07:02:14;98787.31;;;-6.71;100.00
24306;BME280;12423;48.768;8.850;2023-02-08T07:04:15;98798.56;;;-6.72;100.00
24306;BME280;12423;48.768;8.850;2023-02-08T07:06:18;98791.63;;;-6.72;100.00
24306;BME280;12423;48.768;8.850;2023-02-08T07:08:19;98788.22;;;-6.66;100.00
24306;BME280;12423;48.768;8.850;2023-02-08T07:10:20;98791.75;;;-6.59;100.00
24306;BME280;12423;48.768;8.850;2023-02-08T07:12:21;98804.88;;;-6.47;100.00
24306;BME280;12423;48.768;8.850;2023-02-08T07:14:22;98804.81;;;-6.52;100.00
24306;BME280;12423;48.768;8.850;2023-02-08T07:16:23;98809.09;;;-6.57;100.00
24306;BME280;12423;48.768;8.850;2023-02-08T07:18:24;98810.06;;;-6.49;100.00
24306;BME280;12423;48.768;8.850;2023-02-08T07:20:25;98800.56;;;-6.46;100.00
24306;BME280;12423;48.768;8.850;2023-02-08T07:22:26;98799.66;;;-6.49;100.00
24306;BME280;12423;48.768;8.850;2023-02-08T07:24:27;98807.59;;;-6.36;100.00
24306;BME280;12423;48.768;8.850;2023-02-08T07:26:28;98806.78;;;-6.31;100.00
24306;BME280;12423;48.768;8.850;2023-02-08T07:28:29;98818.00;;;-6.36;100.00
24306;BME280;12423;48.768;8.850;2023-02-08T07:30:30;98807.69;;;-6.25;100.00
24306;BME280;12423;48.768;8.850;2023-02-08T07:32:31;98812.88;;;-6.25;100.00
24306;BME280;12423;48.768;8.850;2023-02-08T07:34:34;98807.78;;;-6.15;100.00
24306;BME280;12423;48.768;8.850;2023-02-08T07:36:36;98805.22;;;-6.13;100.00
24306;BME280;12423;48.768;8.850;2023-02-08T07:38:37;98800.00;;;-6.15;100.00
24306;BME280;12423;48.768;8.850;2023-02-08T07:40:39;98809.53;;;-6.12;100.00
24306;BME280;12423;48.768;8.850;2023-02-08T07:42:39;98797.31;;;-6.21;100.00
24306;BME280;12423;48.768;8.850;2023-02-08T07:44:51;98796.56;;;-6.07;100.00
24306;BME280;12423;48.768;8.850;2023-02-08T07:46:52;98804.41;;;-6.04;100.00
24306;BME280;12423;48.768;8.850;2023-02-08T07:48:53;98805.34;;;-5.96;100.00
24306;BME280;12423;48.768;8.850;2023-02-08T07:50:54;98804.50;;;-5.92;100.00
24306;BME280;12423;48.768;8.850;2023-02-08T07:52:55;98805.44;;;-5.82;100.00
24306;BME280;12423;48.768;8.850;2023-02-08T07:54:56;98795.81;;;-5.88;100.00
24306;BME280;12423;48.768;8.850;2023-02-08T07:56:57;98802.88;;;-5.75;100.00
24306;BME280;12423;48.768;8.850;2023-02-08T07:58:58;98802.94;;;-5.67;100.00
24306;BME280;12423;48.768;8.850;2023-02-08T08:00:59;98796.03;;;-5.62;100.00
24306;BME280;12423;48.768;8.850;2023-02-08T08:03:00;98790.88;;;-5.49;100.00
24306;BME280;12423;48.768;8.850;2023-02-08T08:05:01;98790.94;;;-5.42;100.00
24306;BME280;12423;48.768;8.850;2023-02-08T08:07:02;98793.59;;;-5.32;100.00
24306;BME280;12423;48.768;8.850;2023-02-08T08:09:03;98796.22;;;-5.23;100.00
24306;BME280;12423;48.768;8.850;2023-02-08T08:11:04;98791.09;;;-5.12;100.00
24306;BME280;12423;48.768;8.850;2023-02-08T08:13:06;98790.28;;;-4.97;100.00
24306;BME280;12423;48.768;8.850;2023-02-08T08:15:07;98791.16;;;-4.95;100.00
24306;BME280;12423;48.768;8.850;2023-02-08T08:17:08;98793.81;;;-4.86;100.00
24306;BME280;12423;48.768;8.850;2023-02-08T08:19:09;98786.88;;;-4.75;100.00
24306;BME280;12423;48.768;8.850;2023-02-08T08:21:10;98779.09;;;-4.58;100.00
24306;BME280;12423;48.768;8.850;2023-02-08T08:23:12;98782.63;;;-4.43;100.00
24306;BME280;12423;48.768;8.850;2023-02-08T08:25:13;98780.03;;;-4.40;100.00
24306;BME280;12423;48.768;8.850;2023-02-08T08:27:14;98777.41;;;-4.31;100.00
24306;BME280;12423;48.768;8.850;2023-02-08T08:29:15;98778.28;;;-4.28;100.00
24306;BME280;12423;48.768;8.850;2023-02-08T08:31:18;98776.53;;;-4.16;100.00
24306;BME280;12423;48.768;8.850;2023-02-08T08:33:20;98776.53;;;-4.16;100.00
24306;BME280;12423;48.768;8.850;2023-02-08T08:35:21;98779.19;;;-4.01;100.00
24306;BME280;12423;48.768;8.850;2023-02-08T08:37:21;98783.53;;;-3.91;100.00
24306;BME280;12423;48.768;8.850;2023-02-08T08:39:23;98781.78;;;-3.93;100.00
24306;BME280;12423;48.768;8.850;2023-02-08T08:41:24;98786.13;;;-3.87;100.00
24306;BME280;12423;48.768;8.850;2023-02-08T08:43:26;98781.78;;;-3.87;100.00
24306;BME280;12423;48.768;8.850;2023-02-08T08:45:27;98787.88;;;-3.71;100.00
24306;BME280;12423;48.768;8.850;2023-02-08T08:47:28;98777.44;;;-3.73;100.00
24306;BME280;12423;48.768;8.850;2023-02-08T08:49:29;98785.22;;;-3.68;100.00
24306;BME280;12423;48.768;8.850;2023-02-08T08:51:31;98786.97;;;-3.70;100.00
24306;BME280;12423;48.768;8.850;2023-02-08T08:53:35;98780.88;;;-3.55;100.00
24306;BME280;12423;48.768;8.850;2023-02-08T08:55:36;98772.16;;;-3.51;100.00
24306;BME280;12423;48.768;8.850;2023-02-08T08:57:37;98780.84;;;-3.43;100.00
24306;BME280;12423;48.768;8.850;2023-02-08T08:59:38;98779.09;;;-3.35;100.00
24306;BME280;12423;48.768;8.850;2023-02-08T09:01:39;98776.47;;;-3.30;100.00
24306;BME280;12423;48.768;8.850;2023-02-08T09:03:42;98769.44;;;-3.14;100.00
24306;BME280;12423;48.768;8.850;2023-02-08T09:05:43;98768.50;;;-2.96;100.00
24306;BME280;12423;48.768;8.850;2023-02-08T09:07:44;98762.38;;;-2.92;100.00
24306;BME280;12423;48.768;8.850;2023-02-08T09:09:45;98756.25;;;-2.86;100.00
24306;BME280;12423;48.768;8.850;2023-02-08T09:11:48;98768.44;;;-2.84;100.00
24306;BME280;12423;48.768;8.850;2023-02-08T09:13:49;98763.22;;;-2.84;100.00
24306;BME280;12423;48.768;8.850;2023-02-08T09:15:55;98766.69;;;-2.80;100.00
24306;BME280;12423;48.768;8.850;2023-02-08T09:17:56;98771.00;;;-2.71;100.00
24306;BME280;12423;48.768;8.850;2023-02-08T09:19:57;98768.38;;;-2.70;100.00
24306;BME280;12423;48.768;8.850;2023-02-08T09:21:58;98773.53;;;-2.56;100.00
24306;BME280;12423;48.768;8.850;2023-02-08T09:24:00;98765.66;;;-2.51;100.00
24306;BME280;12423;48.768;8.850;2023-02-08T09:26:03;98752.50;;;-2.41;100.00
24306;BME280;12423;48.768;8.850;2023-02-08T09:28:04;98751.56;;;-2.30;100.00
24306;BME280;12423;48.768;8.850;2023-02-08T09:30:06;98750.56;;;-2.17;100.00
24306;BME280;12423;48.768;8.850;2023-02-08T09:32:07;98751.38;;;-2.07;100.00
24306;BME280;12423;48.768;8.850;2023-02-08T09:34:08;98747.88;;;-2.05;100.00
24306;BME280;12423;48.768;8.850;2023-02-08T09:36:10;98746.00;;;-1.93;100.00
24306;BME280;12423;48.768;8.850;2023-02-08T09:38:10;98748.56;;;-1.86;100.00
24306;BME280;12423;48.768;8.850;2023-02-08T09:40:24;98745.94;;;-1.86;100.00
24306;BME280;12423;48.768;8.850;2023-02-08T09:42:32;98751.06;;;-1.72;100.00
24306;BME280;12423;48.768;8.850;2023-02-08T09:45:05;98745.72;;;-1.59;100.00
24306;BME280;12423;48.768;8.850;2023-02-08T09:49:31;98744.94;;;-0.91;100.00
24306;BME280;12423;48.768;8.850;2023-02-08T09:51:38;98740.25;;;-0.68;98.42
24306;BME280;12423;48.768;8.850;2023-02-08T09:53:45;98731.31;;;-0.54;94.00
24306;BME280;12423;48.768;8.850;2023-02-08T09:55:58;98736.81;;;-0.71;91.84
24306;BME280;12423;48.768;8.850;2023-02-08T09:58:02;98738.53;;;-0.69;91.77
24306;BME280;12423;48.768;8.850;2023-02-08T10:00:10;98735.88;;;-0.66;88.63
24306;BME280;12423;48.768;8.850;2023-02-08T10:02:24;98734.91;;;-0.60;87.63
24306;BME280;12423;48.768;8.850;2023-02-08T10:04:40;98731.25;;;-0.51;87.40
24306;BME280;12423;48.768;8.850;2023-02-08T10:06:45;98734.78;;;-0.51;82.01
24306;BME280;12423;48.768;8.850;2023-02-08T10:08:49;98743.38;;;-0.40;81.90
24306;BME280;12423;48.768;8.850;2023-02-08T10:15:52;98740.44;;;-0.20;87.81
24306;BME280;12423;48.768;8.850;2023-02-08T10:27:20;98729.41;;;0.11;76.13
24306;BME280;12423;48.768;8.850;2023-02-08T10:36:18;98716.59;;;0.43;75.57
24306;BME280;12423;48.768;8.850;2023-02-08T10:40:25;98711.44;;;0.38;72.83
24306;BME280;12423;48.768;8.850;2023-02-08T10:42:30;98712.88;;;0.54;76.32
24306;BME280;12423;48.768;8.850;2023-02-08T10:44:39;98704.03;;;0.59;76.60
24306;BME280;12423;48.768;8.850;2023-02-08T10:46:49;98704.75;;;0.67;79.21
24306;BME280;12423;48.768;8.850;2023-02-08T10:51:16;98704.53;;;0.78;77.20
24306;BME280;12423;48.768;8.850;2023-02-08T10:53:17;98700.97;;;0.80;74.20
24306;BME280;12423;48.768;8.850;2023-02-08T10:55:20;98700.91;;;0.83;75.14
24306;BME280;12423;48.768;8.850;2023-02-08T10:57:24;98697.25;;;0.90;78.19
24306;BME280;12423;48.768;8.850;2023-02-08T11:01:49;98702.97;;;1.11;75.84
24306;BME280;12423;48.768;8.850;2023-02-08T11:04:08;98701.47;;;0.99;75.06
24306;BME280;12423;48.768;8.850;2023-02-08T11:06:25;98690.84;;;1.02;75.34
24306;BME280;12423;48.768;8.850;2023-02-08T11:08:26;98694.94;;;1.17;76.12
24306;BME280;12423;48.768;8.850;2023-02-08T11:10:28;98686.00;;;1.24;74.52
24306;BME280;12423;48.768;8.850;2023-02-08T11:12:29;98684.88;;;1.35;76.12
24306;BME280;12423;48.768;8.850;2023-02-08T11:14:38;98686.19;;;1.54;78.20
24306;BME280;12423;48.768;8.850;2023-02-08T11:16:40;98684.03;;;1.72;77.12
24306;BME280;12423;48.768;8.850;2023-02-08T11:18:51;98675.94;;;1.79;76.00
24306;BME280;12423;48.768;8.850;2023-02-08T11:21:03;98675.81;;;1.84;74.00
24306;BME280;12423;48.768;8.850;2023-02-08T11:23:18;98672.56;;;2.09;73.53
24306;BME280;12423;48.768;8.850;2023-02-08T11:25:37;98666.97;;;2.21;74.58
24306;BME280;12423;48.768;8.850;2023-02-08T11:27:47;98672.75;;;2.35;72.84
24306;BME280;12423;48.768;8.850;2023-02-08T11:30:10;98667.34;;;2.40;69.67
24306;BME280;12423;48.768;8.850;2023-02-08T11:32:19;98660.78;;;2.55;70.33
24306;BME280;12423;48.768;8.850;2023-02-08T11:36:34;98655.59;;;3.41;69.60
24306;BME280;12423;48.768;8.850;2023-02-08T11:38:40;98655.63;;;4.21;67.20
24306;BME280;12423;48.768;8.850;2023-02-08T11:40:43;98647.84;;;5.81;63.75
24306;BME280;12423;48.768;8.850;2023-02-08T11:42:44;98648.44;;;7.66;59.74
24306;BME280;12423;48.768;8.850;2023-02-08T11:44:47;98635.19;;;9.04;52.36
24306;BME280;12423;48.768;8.850;2023-02-08T11:46:49;98631.25;;;9.28;47.12
24306;BME280;12423;48.768;8.850;2023-02-08T11:48:52;98631.88;;;9.95;46.47
24306;BME280;12423;48.768;8.850;2023-02-08T11:50:56;98628.72;;;11.35;44.07
24306;BME280;12423;48.768;8.850;2023-02-08T11:53:01;98622.53;;;11.89;41.61
24306;BME280;12423;48.768;8.850;2023-02-08T11:57:19;98613.53;;;11.36;38.71